Time;durP1;ratioP1;P1;durP2;ratioP2;P2;SDS_P1;SDS_P2;PMS_P1;PMS_P2;Temp;Humidity;BMP_temperature;BMP_pressure;BME280_temperature;BME280_humidity;BME280_pressure;Samples;Min_cycle;Max_cycle;Signal;HPM_P1;HPM_P2
2022/02/10 00:05:53;;;;;;;28.15;12.68;;;8.20;70.20;;;;;;5061693;28;20387;-77
2022/02/10 00:19:32;;;;;;;23.15;13.60;;;8.00;73.20;;;;;;5067407;28;20395;-75
2022/02/10 00:22:45;;;;;;;24.35;13.38;;;7.90;73.60;;;;;;5061209;28;20388;-78
2022/02/10 00:35:26;;;;;;;29.80;13.45;;;7.70;78.10;;;;;;5044924;28;20416;-78
2022/02/10 00:37:59;;;;;;;30.52;13.75;;;7.60;78.30;;;;;;5055220;28;20384;-79
2022/02/10 00:40:26;;;;;;;24.25;13.60;;;7.50;80.70;;;;;;5063390;28;20406;-79
2022/02/10 00:42:53;;;;;;;27.48;14.90;;;7.50;81.80;;;;;;5062110;28;20397;-81
2022/02/10 00:45:20;;;;;;;28.10;13.80;;;7.40;83.70;;;;;;5062783;28;20488;-81
2022/02/10 00:47:53;;;;;;;30.88;13.82;;;7.30;84.70;;;;;;5063972;28;20458;-79
2022/02/10 00:50:22;;;;;;;29.20;14.23;;;7.30;86.60;;;;;;5062034;28;20519;-80
2022/02/10 00:52:49;;;;;;;31.83;13.60;;;7.30;86.10;;;;;;5059983;28;20426;-78
2022/02/10 00:55:18;;;;;;;32.13;14.57;;;7.20;85.80;;;;;;5068017;28;20402;-77
2022/02/10 00:57:43;;;;;;;29.45;14.55;;;7.20;87.90;;;;;;5067084;28;20387;-79
2022/02/10 01:13:50;;;;;;;26.70;13.90;;;7.10;91.80;;;;;;5046481;28;20518;-81
2022/02/10 01:29:42;;;;;;;30.77;15.10;;;6.80;94.00;;;;;;5053478;28;20885;-78
2022/02/10 01:32:08;;;;;;;33.47;16.38;;;6.80;94.90;;;;;;5056553;28;20479;-80
2022/02/10 01:34:38;;;;;;;26.80;15.32;;;6.70;97.80;;;;;;5041705;28;20430;-78
2022/02/10 01:37:03;;;;;;;26.17;15.80;;;6.70;98.30;;;;;;5039177;28;20396;-79
2022/02/10 01:39:34;;;;;;;28.37;14.87;;;6.80;95.80;;;;;;5055838;28;20384;-77
2022/02/10 01:42:50;;;;;;;27.97;14.67;;;6.80;96.00;;;;;;5064687;28;20455;-77
2022/02/10 02:04:10;;;;;;;32.33;16.60;;;6.60;99.90;;;;;;5063372;28;20396;-77
2022/02/10 02:06:44;;;;;;;31.30;16.10;;;6.60;99.90;;;;;;5067324;28;20421;-77
2022/02/10 02:09:13;;;;;;;29.83;16.30;;;6.80;99.90;;;;;;5067987;28;20809;-77
2022/02/10 02:11:40;;;;;;;36.78;16.80;;;6.90;95.90;;;;;;5070838;28;20436;-78
2022/02/10 02:14:07;;;;;;;26.65;15.77;;;6.80;96.30;;;;;;5069764;28;20416;-79
2022/02/10 02:16:33;;;;;;;27.55;15.63;;;6.90;94.60;;;;;;5074776;28;20385;-78
2022/02/10 02:18:59;;;;;;;30.20;15.88;;;7.00;93.70;;;;;;5077648;28;20397;-77
2022/02/10 02:21:24;;;;;;;29.67;15.97;;;7.10;92.30;;;;;;5078625;28;20387;-76
2022/02/10 02:23:50;;;;;;;28.15;15.32;;;7.10;90.80;;;;;;5075007;28;20444;-76
2022/02/10 02:26:22;;;;;;;34.25;17.60;;;7.10;89.30;;;;;;5078466;28;20431;-76
2022/02/10 02:28:52;;;;;;;28.48;15.60;;;7.10;89.10;;;;;;5073152;28;20393;-76
2022/02/10 02:31:31;;;;;;;25.75;16.13;;;7.10;90.10;;;;;;5073325;28;20499;-78
2022/02/10 03:08:46;;;;;;;24.90;16.07;;;6.70;86.90;;;;;;5059144;28;20414;-78
2022/02/10 03:11:13;;;;;;;34.30;16.17;;;6.50;89.60;;;;;;5073511;28;20448;-77
2022/02/10 03:13:46;;;;;;;29.23;16.50;;;6.30;91.80;;;;;;5067209;28;20408;-77
2022/02/10 04:02:56;;;;;;;32.40;16.17;;;5.40;99.90;;;;;;5057950;28;20402;-79
2022/02/10 04:06:02;;;;;;;29.05;15.25;;;5.40;99.90;;;;;;5058728;28;20415;-79
2022/02/10 05:19:34;;;;;;;21.05;11.35;;;6.30;86.60;;;;;;5058511;28;20381;-79
2022/02/10 05:34:54;;;;;;;22.92;11.18;;;6.50;80.60;;;;;;5058177;28;20397;-78
2022/02/10 05:37:24;;;;;;;15.77;11.18;;;6.50;77.40;;;;;;5058623;28;20505;-77
2022/02/10 05:39:52;;;;;;;18.75;11.23;;;6.40;78.90;;;;;;5072994;28;20401;-78
2022/02/10 05:44:57;;;;;;;22.95;11.05;;;6.60;79.20;;;;;;5074356;28;20428;-77
2022/02/10 05:57:46;;;;;;;19.77;11.00;;;6.40;77.70;;;;;;5062045;28;20401;-78
2022/02/10 06:40:20;;;;;;;21.65;11.20;;;6.60;75.90;;;;;;5048153;28;20418;-78
2022/02/10 06:51:57;;;;;;;25.50;11.30;;;6.60;76.50;;;;;;5056580;28;20431;-79
2022/02/10 06:54:53;;;;;;;26.15;12.55;;;6.70;73.40;;;;;;5058848;28;20546;-80
2022/02/10 07:08:24;;;;;;;22.77;11.70;;;6.90;72.90;;;;;;5053123;28;20409;-79
2022/02/10 07:16:47;;;;;;;23.48;11.55;;;6.80;75.00;;;;;;5047423;28;20443;-79
2022/02/10 07:44:16;;;;;;;22.55;12.57;;;7.00;70.10;;;;;;5065732;28;20461;-79
2022/02/10 07:59:55;;;;;;;23.17;11.55;;;7.20;68.80;;;;;;5058777;28;20390;-79
2022/02/10 09:10:47;;;;;;;33.23;14.50;;;8.90;53.60;;;;;;5048051;28;20470;-72
2022/02/10 09:27:24;;;;;;;26.08;13.98;;;9.70;48.70;;;;;;5045055;28;20399;-73
2022/02/10 10:04:03;;;;;;;26.13;14.23;;;9.40;55.50;;;;;;5045988;28;20761;-76
2022/02/10 10:15:31;;;;;;;27.75;15.20;;;9.50;60.30;;;;;;5021753;28;20417;-75
2022/02/10 10:27:14;;;;;;;25.10;13.75;;;9.40;65.10;;;;;;5043276;28;20401;-75
2022/02/10 10:56:53;;;;;;;27.03;14.07;;;9.20;73.50;;;;;;5042435;28;20879;-76
2022/02/10 11:39:14;;;;;;;23.27;14.45;;;8.70;90.00;;;;;;5046075;28;20419;-74
2022/02/10 14:09:37;;;;;;;9.30;6.95;;;9.70;67.70;;;;;;5031038;28;20433;-74
2022/02/10 14:17:09;;;;;;;12.60;7.70;;;10.10;58.30;;;;;;5030598;28;20383;-73
2022/02/10 14:22:11;;;;;;;8.88;6.60;;;10.10;56.70;;;;;;5045152;28;20404;-74
2022/02/10 14:27:21;;;;;;;11.18;7.07;;;10.30;56.40;;;;;;5050445;28;20384;-74
2022/02/10 14:29:47;;;;;;;11.60;6.15;;;10.40;55.50;;;;;;5050979;28;20385;-74
2022/02/10 14:32:19;;;;;;;10.00;6.82;;;10.40;55.40;;;;;;5049085;28;20513;-73
2022/02/10 14:34:50;;;;;;;9.30;6.80;;;10.40;55.20;;;;;;5049840;28;20500;-74
2022/02/10 14:37:37;;;;;;;10.43;6.68;;;10.00;56.40;;;;;;5050018;28;20384;-73
2022/02/10 14:40:29;;;;;;;8.75;6.80;;;9.90;57.50;;;;;;5050025;28;20388;-73
2022/02/10 15:14:02;;;;;;;13.90;7.65;;;9.50;57.90;;;;;;5047988;28;20474;-73
2022/02/10 15:20:53;;;;;;;11.13;7.90;;;9.40;60.70;;;;;;5036762;28;20484;-75
2022/02/10 16:17:27;;;;;;;14.23;9.73;;;9.00;65.00;;;;;;5049959;28;20423;-73
2022/02/10 16:19:54;;;;;;;16.02;9.82;;;8.90;67.70;;;;;;5048870;28;20387;-74
2022/02/10 16:24:52;;;;;;;15.43;10.50;;;9.00;69.00;;;;;;5045151;28;20729;-74
2022/02/10 16:27:27;;;;;;;17.90;10.63;;;8.80;71.40;;;;;;5049337;28;20392;-74
2022/02/10 16:30:05;;;;;;;14.38;9.70;;;8.80;72.60;;;;;;5042433;28;20395;-76
2022/02/10 16:32:31;;;;;;;16.73;10.13;;;8.90;71.60;;;;;;5045351;28;20956;-73
2022/02/10 16:35:01;;;;;;;19.25;10.10;;;8.90;70.20;;;;;;5046833;28;20916;-73
2022/02/10 16:37:27;;;;;;;16.40;9.90;;;8.90;70.20;;;;;;5044766;28;20459;-72
2022/02/10 16:39:53;;;;;;;15.13;9.70;;;8.80;69.80;;;;;;5046977;28;20400;-73
2022/02/10 16:42:19;;;;;;;16.90;9.70;;;8.70;67.40;;;;;;5045259;28;20905;-72
2022/02/10 16:44:47;;;;;;;21.92;9.60;;;8.70;67.40;;;;;;5047288;28;20947;-72
2022/02/10 16:47:14;;;;;;;14.75;8.82;;;8.70;63.50;;;;;;5048220;28;20485;-75
2022/02/10 16:49:46;;;;;;;12.48;8.30;;;8.50;66.20;;;;;;5046065;28;20400;-73
2022/02/10 16:52:20;;;;;;;19.73;8.35;;;8.40;63.50;;;;;;5040762;28;20424;-72
2022/02/10 16:54:47;;;;;;;17.83;7.95;;;8.30;64.50;;;;;;5046398;28;20422;-73
2022/02/10 16:57:36;;;;;;;13.20;8.00;;;8.50;62.40;;;;;;5034421;28;20422;-72
2022/02/10 17:00:11;;;;;;;14.38;7.13;;;8.30;63.90;;;;;;5044764;28;21019;-72
2022/02/10 17:02:52;;;;;;;16.98;8.57;;;8.30;62.50;;;;;;5039312;28;20448;-72
2022/02/10 17:19:10;;;;;;;16.98;9.70;;;8.40;65.00;;;;;;5036326;28;20484;-73
2022/02/10 17:27:28;;;;;;;11.27;6.13;;;8.20;60.70;;;;;;5047911;28;20396;-73
2022/02/10 17:35:21;;;;;;;11.45;7.00;;;8.00;58.10;;;;;;5035054;28;20415;-72
2022/02/10 17:46:04;;;;;;;19.40;7.93;;;7.90;64.50;;;;;;5046341;28;20531;-73
2022/02/10 17:53:52;;;;;;;14.52;7.40;;;7.80;63.80;;;;;;5045433;28;20405;-73
2022/02/10 17:56:18;;;;;;;16.92;7.68;;;7.80;62.60;;;;;;5046773;28;20436;-72
2022/02/10 17:58:44;;;;;;;10.88;6.85;;;7.80;65.00;;;;;;5047156;28;20484;-72
2022/02/10 18:01:12;;;;;;;13.57;7.05;;;7.80;62.40;;;;;;5041866;28;20481;-73
2022/02/10 18:03:38;;;;;;;11.60;7.18;;;7.80;62.80;;;;;;5040612;28;20404;-73
2022/02/10 18:08:43;;;;;;;17.55;7.70;;;7.70;67.90;;;;;;5041908;28;20461;-73
2022/02/10 18:16:28;;;;;;;15.48;7.07;;;7.90;62.40;;;;;;5049444;28;20500;-73
2022/02/10 18:19:00;;;;;;;15.18;7.00;;;7.90;61.60;;;;;;5043283;28;20394;-73
2022/02/10 18:29:36;;;;;;;13.85;6.10;;;8.10;57.20;;;;;;5042573;28;20382;-73
2022/02/10 19:10:27;;;;;;;4.20;2.15;;;5.20;99.90;;;;;;5041378;28;20826;-72
2022/02/10 19:12:56;;;;;;;5.50;2.17;;;5.20;99.90;;;;;;5049145;28;20744;-72
2022/02/10 19:15:33;;;;;;;5.95;2.00;;;5.30;99.90;;;;;;5050355;28;20413;-71
2022/02/10 19:18:01;;;;;;;3.00;2.10;;;5.20;99.90;;;;;;5047248;28;20399;-71
2022/02/10 19:20:27;;;;;;;7.78;1.67;;;5.20;99.90;;;;;;5042970;28;20396;-73
2022/02/10 19:22:52;;;;;;;6.32;1.60;;;5.20;99.90;;;;;;5048048;28;20389;-71
2022/02/10 19:25:20;;;;;;;8.43;1.60;;;5.40;99.90;;;;;;5050549;28;20806;-72
2022/02/10 19:27:48;;;;;;;5.60;1.80;;;5.50;99.90;;;;;;5049919;28;20397;-73
2022/02/10 19:30:16;;;;;;;6.65;1.67;;;5.50;99.90;;;;;;5045862;28;20397;-72
2022/02/10 19:32:48;;;;;;;3.65;1.63;;;5.40;99.90;;;;;;5049951;28;20918;-71
2022/02/10 19:35:16;;;;;;;3.72;1.60;;;5.40;99.90;;;;;;5051083;28;20441;-72
2022/02/10 19:37:41;;;;;;;3.72;1.80;;;5.40;99.90;;;;;;5050719;28;20461;-72
2022/02/10 19:40:08;;;;;;;5.53;1.80;;;5.40;99.90;;;;;;5043341;28;20477;-72
2022/02/10 19:42:36;;;;;;;3.13;1.90;;;5.40;99.90;;;;;;5049046;28;20966;-71
2022/02/10 19:45:04;;;;;;;3.83;1.80;;;5.60;99.90;;;;;;5048422;28;20399;-72
2022/02/10 19:47:32;;;;;;;3.35;2.08;;;5.60;99.90;;;;;;5047014;28;20446;-75
2022/02/10 19:49:58;;;;;;;4.20;2.20;;;5.70;97.50;;;;;;5043436;28;20391;-75
2022/02/10 19:52:25;;;;;;;3.50;2.40;;;5.80;92.40;;;;;;5043660;28;20420;-75
2022/02/10 19:54:54;;;;;;;1.98;1.50;;;5.80;84.70;;;;;;5046067;28;20414;-75
2022/02/10 19:57:23;;;;;;;4.90;1.40;;;5.60;77.60;;;;;;5053653;28;20389;-75
2022/02/10 19:59:49;;;;;;;3.08;1.25;;;5.40;77.30;;;;;;5045800;28;20396;-75
2022/02/10 20:02:17;;;;;;;3.28;1.60;;;5.40;78.90;;;;;;5044141;28;20420;-76
2022/02/10 20:04:42;;;;;;;4.15;2.20;;;5.30;79.80;;;;;;5042249;28;20432;-75
2022/02/10 20:07:10;;;;;;;2.93;1.73;;;5.30;82.80;;;;;;5038529;28;20438;-75
2022/02/10 20:09:36;;;;;;;4.25;2.05;;;5.30;81.90;;;;;;5048052;28;20425;-75
2022/02/10 20:12:03;;;;;;;3.90;2.33;;;5.30;86.60;;;;;;5051135;28;20434;-74
2022/02/10 20:14:28;;;;;;;8.98;2.70;;;5.40;89.90;;;;;;5049438;28;20393;-74
2022/02/10 20:16:57;;;;;;;3.80;2.15;;;5.40;92.50;;;;;;5047800;28;20407;-75
2022/02/10 20:19:27;;;;;;;2.80;1.95;;;5.40;80.50;;;;;;5049323;28;20397;-75
2022/02/10 20:21:52;;;;;;;6.25;2.00;;;5.40;85.40;;;;;;5048730;28;20802;-74
2022/02/10 20:24:18;;;;;;;3.70;2.00;;;5.30;88.60;;;;;;5048990;28;20401;-74
2022/02/10 20:26:43;;;;;;;3.77;1.87;;;5.30;92.30;;;;;;5046014;28;20389;-74
2022/02/10 20:29:11;;;;;;;1.93;1.30;;;5.30;95.90;;;;;;5051146;28;20410;-76
2022/02/10 20:31:39;;;;;;;3.83;1.70;;;5.40;79.60;;;;;;5048759;28;20408;-75
2022/02/10 20:34:07;;;;;;;4.15;1.50;;;5.40;81.30;;;;;;5048723;28;20655;-76
2022/02/10 20:36:34;;;;;;;5.85;1.45;;;5.30;82.70;;;;;;5047425;28;20562;-74
2022/02/10 20:39:00;;;;;;;6.07;1.77;;;5.30;83.00;;;;;;5047129;28;20793;-74
2022/02/10 20:41:31;;;;;;;4.22;1.40;;;5.20;85.60;;;;;;5048620;28;20484;-76
2022/02/10 20:43:58;;;;;;;4.03;1.50;;;5.20;88.70;;;;;;5047164;28;20397;-74
2022/02/10 20:46:25;;;;;;;3.22;1.30;;;5.20;89.50;;;;;;5047060;28;20523;-74
2022/02/10 20:48:51;;;;;;;4.93;1.10;;;5.20;88.60;;;;;;5046643;28;20397;-74
2022/02/10 20:51:17;;;;;;;3.88;1.35;;;5.30;78.30;;;;;;5042674;28;20471;-74
2022/02/10 20:53:45;;;;;;;3.00;1.42;;;5.20;77.80;;;;;;5042660;28;20991;-74
2022/02/10 20:56:13;;;;;;;4.35;1.23;;;5.10;79.50;;;;;;5045503;28;20895;-77
2022/02/10 20:58:40;;;;;;;2.10;1.00;;;5.10;78.10;;;;;;5045473;28;20414;-73
2022/02/10 21:01:10;;;;;;;3.60;1.30;;;5.10;78.20;;;;;;5041524;28;20405;-74
2022/02/10 21:03:36;;;;;;;4.47;1.05;;;5.10;80.60;;;;;;5042172;28;20955;-74
2022/02/10 21:10:55;;;;;;;6.70;1.40;;;5.00;88.40;;;;;;5047189;28;20494;-75
2022/02/10 21:13:22;;;;;;;8.80;1.20;;;5.00;86.10;;;;;;5052284;28;20394;-74
2022/02/10 21:15:48;;;;;;;3.72;1.10;;;5.00;84.60;;;;;;5046898;28;20442;-74
2022/02/10 21:18:15;;;;;;;0.83;0.83;;;5.00;84.80;;;;;;5047864;28;20433;-74
2022/02/10 21:20:43;;;;;;;3.75;1.00;;;5.00;81.50;;;;;;5048768;28;20389;-73
2022/02/10 21:23:19;;;;;;;2.40;1.00;;;5.00;79.30;;;;;;5048050;28;20480;-73
2022/02/10 21:25:46;;;;;;;2.30;1.20;;;5.00;77.20;;;;;;5048459;28;20409;-73
2022/02/10 21:28:25;;;;;;;6.25;1.80;;;5.00;79.60;;;;;;5046785;28;20803;-75
2022/02/10 21:30:54;;;;;;;2.90;1.50;;;4.90;82.20;;;;;;5046421;28;20435;-73
2022/02/10 21:36:42;;;;;;;3.17;1.30;;;4.90;81.30;;;;;;5038418;28;20417;-73
2022/02/10 21:39:00;;;;;;;3.78;1.60;;;4.90;84.10;;;;;;5037224;28;20455;-73
2022/02/10 21:58:02;;;;;;;5.20;2.40;;;4.90;91.60;;;;;;5032390;28;20419;-73
2022/02/10 22:19:03;;;;;;;3.83;2.50;;;5.10;86.60;;;;;;5047039;28;20396;-74
2022/02/10 22:21:36;;;;;;;3.22;2.17;;;5.20;84.50;;;;;;5040617;28;20455;-74
2022/02/10 22:24:06;;;;;;;5.50;2.50;;;5.20;82.30;;;;;;5041647;28;21225;-73
2022/02/10 22:26:32;;;;;;;3.90;2.40;;;5.10;85.40;;;;;;5050625;28;20874;-73
2022/02/10 22:29:07;;;;;;;5.87;2.40;;;5.20;83.80;;;;;;5045744;28;20539;-73
2022/02/10 22:32:15;;;;;;;6.00;2.50;;;5.30;80.50;;;;;;5048337;28;20433;-72
2022/02/10 22:36:59;;;;;;;4.03;2.20;;;5.00;83.20;;;;;;5050036;28;20505;-72
2022/02/10 22:39:26;;;;;;;7.43;2.72;;;5.00;79.30;;;;;;5048705;28;20754;-73
2022/02/10 22:41:52;;;;;;;5.15;2.33;;;5.00;81.60;;;;;;5045141;28;20394;-73
2022/02/10 22:44:18;;;;;;;4.55;2.47;;;5.00;78.70;;;;;;5044470;28;20391;-73
2022/02/10 22:46:45;;;;;;;5.38;3.20;;;4.90;80.40;;;;;;5051153;28;20874;-72
2022/02/10 22:49:11;;;;;;;6.07;2.70;;;4.90;80.60;;;;;;5049733;28;20414;-72
2022/02/10 22:51:38;;;;;;;4.70;2.50;;;4.90;80.90;;;;;;5051165;28;20393;-73
2022/02/10 22:54:05;;;;;;;7.20;2.85;;;4.90;81.70;;;;;;5043007;28;20389;-74
2022/02/10 22:56:32;;;;;;;5.60;3.10;;;5.00;85.70;;;;;;5050537;28;20588;-74
2022/02/10 22:59:06;;;;;;;5.40;3.50;;;5.00;83.30;;;;;;5048872;28;20393;-74
2022/02/10 23:01:32;;;;;;;7.18;3.20;;;5.00;80.50;;;;;;5047145;28;20936;-74
2022/02/10 23:03:58;;;;;;;6.70;3.10;;;5.00;82.40;;;;;;5048852;28;20401;-74
2022/02/10 23:06:24;;;;;;;5.00;3.10;;;4.90;83.70;;;;;;5052737;28;20416;-74
2022/02/10 23:08:50;;;;;;;9.23;3.40;;;4.90;84.30;;;;;;5054665;28;20453;-74
2022/02/10 23:11:25;;;;;;;4.13;2.97;;;4.90;85.20;;;;;;5053072;28;20427;-74
2022/02/10 23:13:51;;;;;;;6.10;2.78;;;4.90;84.90;;;;;;5045357;28;20397;-74
2022/02/10 23:16:17;;;;;;;6.37;3.00;;;4.90;83.90;;;;;;5042818;28;20888;-73
2022/02/10 23:18:45;;;;;;;3.20;2.90;;;4.90;85.40;;;;;;5049433;28;20484;-74
2022/02/10 23:21:14;;;;;;;4.60;2.53;;;4.90;83.00;;;;;;5047697;28;20403;-75
2022/02/10 23:23:44;;;;;;;3.45;2.90;;;4.90;82.90;;;;;;5043809;28;20396;-75
2022/02/10 23:26:12;;;;;;;4.40;2.88;;;4.90;82.50;;;;;;5048246;28;20406;-74
2022/02/10 23:28:48;;;;;;;3.40;3.10;;;4.90;82.60;;;;;;5049592;28;20496;-75
2022/02/10 23:31:16;;;;;;;5.10;3.03;;;4.90;85.00;;;;;;5048167;28;20490;-73
2022/02/10 23:33:48;;;;;;;6.63;2.88;;;5.00;82.70;;;;;;5043629;28;21088;-74
2022/02/10 23:38:44;;;;;;;6.40;3.20;;;5.00;84.50;;;;;;5048130;28;20400;-74
2022/02/10 23:43:44;;;;;;;6.50;2.83;;;5.00;80.20;;;;;;5047881;28;20443;-73
2022/02/10 23:46:10;;;;;;;6.53;3.80;;;5.00;81.20;;;;;;5038298;28;20455;-73
2022/02/10 23:48:36;;;;;;;4.95;3.85;;;5.00;81.60;;;;;;5050914;28;20432;-73
2022/02/10 23:51:02;;;;;;;5.90;4.47;;;4.90;80.20;;;;;;5048363;28;20405;-74
2022/02/10 23:53:29;;;;;;;5.35;4.60;;;4.90;81.10;;;;;;5047750;28;20402;-75
2022/02/10 23:55:55;;;;;;;9.32;5.32;;;4.90;79.50;;;;;;5043369;28;20416;-75
